createdAt,value
2023-05-15T04:38:45.566Z,98807.79
2023-05-15T04:44:23.549Z,98780.10
2023-05-15T04:46:50.975Z,98775.19
2023-05-15T04:49:27.405Z,98769.41
2023-05-15T04:51:59.010Z,98766.45
2023-05-15T04:54:25.792Z,98757.05
2023-05-15T04:56:52.728Z,98749.02
2023-05-15T04:59:19.702Z,98741.95
2023-05-15T05:01:48.313Z,98743.18
2023-05-15T05:04:19.791Z,98734.98
2023-05-15T05:06:47.717Z,98726.29
2023-05-15T05:09:15.606Z,98721.59
2023-05-15T05:11:48.975Z,98721.33
2023-05-15T05:14:17.011Z,98719.55
2023-05-15T05:17:02.877Z,98716.59
2023-05-15T05:19:33.034Z,98715.08
2023-05-15T05:22:04.470Z,98710.50
2023-05-15T05:24:38.386Z,98706.62
2023-05-15T05:27:06.958Z,98702.61
2023-05-15T05:29:34.201Z,98698.08
2023-05-15T05:32:01.389Z,98693.33
2023-05-15T05:34:28.590Z,98688.69
2023-05-15T05:36:56.842Z,98685.23
2023-05-15T05:39:23.641Z,98673.10
2023-05-15T05:41:52.843Z,98666.58
2023-05-15T05:44:19.932Z,98658.83
2023-05-15T05:46:47.358Z,98650.02
2023-05-15T05:49:16.970Z,98643.34
2023-05-15T05:51:46.450Z,98634.92
2023-05-15T05:54:18.715Z,98629.77
2023-05-15T05:57:34.187Z,98623.92
2023-05-15T06:00:24.029Z,98621.23
2023-05-15T06:11:09.217Z,98595.42
2023-05-15T06:18:11.789Z,98581.08
2023-05-15T06:20:44.427Z,98574.45
2023-05-15T06:23:11.830Z,98562.86
2023-05-15T06:25:39.785Z,98553.91
2023-05-15T06:28:06.952Z,98548.73
2023-05-15T06:30:33.984Z,98541.79
2023-05-15T06:33:02.109Z,98534.84
2023-05-15T06:35:29.264Z,98517.59
2023-05-15T06:37:57.814Z,98508.27
2023-05-15T06:40:25.354Z,98507.55
2023-05-15T06:42:58.133Z,98505.39
2023-05-15T06:45:45.125Z,98507.33
2023-05-15T06:48:17.836Z,98504.30
2023-05-15T06:51:05.175Z,98507.00
2023-05-15T06:57:16.003Z,98520.92
2023-05-15T06:59:45.096Z,98516.45
2023-05-15T07:02:14.545Z,98499.04
2023-05-15T07:04:42.341Z,98490.89
2023-05-15T07:07:09.524Z,98481.40
2023-05-15T07:09:37.179Z,98473.36
2023-05-15T07:12:05.534Z,98459.71
2023-05-15T07:56:05.370Z,98395.51
2023-05-15T07:58:37.251Z,98387.20
2023-05-15T08:01:04.613Z,98378.64
2023-05-15T08:03:31.655Z,98373.55
2023-05-15T08:05:59.135Z,98365.36
2023-05-15T08:08:28.427Z,98365.50
2023-05-15T08:17:40.091Z,98355.05
2023-05-15T08:20:48.968Z,98344.79
2023-05-15T08:24:00.203Z,98341.55
2023-05-15T08:26:33.068Z,98336.48
2023-05-15T08:29:06.076Z,98336.58
2023-05-15T08:31:33.025Z,98334.64
2023-05-15T08:33:59.822Z,98330.20
2023-05-15T08:36:26.871Z,98322.48
2023-05-15T08:38:54.601Z,98320.76
2023-05-15T08:41:40.115Z,98314.20
2023-05-15T08:44:09.109Z,98317.64
2023-05-15T08:46:39.195Z,98319.24
2023-05-15T08:49:32.229Z,98316.37
2023-05-15T08:52:01.562Z,98317.98
2023-05-15T08:54:28.477Z,98323.14
2023-05-15T08:56:55.411Z,98322.80
2023-05-15T08:59:22.441Z,98324.16
2023-05-15T09:01:50.127Z,98320.02
2023-05-15T09:04:21.654Z,98318.70
2023-05-15T09:06:49.036Z,98320.42
2023-05-15T09:09:19.055Z,98318.00
2023-05-15T09:11:48.046Z,98322.79
2023-05-15T09:14:15.062Z,98317.00
2023-05-15T09:16:43.892Z,98316.61
2023-05-15T09:19:11.935Z,98314.57
2023-05-15T09:21:39.523Z,98308.80
2023-05-15T09:24:27.719Z,98308.51
2023-05-15T09:27:07.966Z,98304.95
2023-05-15T09:29:37.401Z,98310.03
2023-05-15T09:32:07.207Z,98305.96
2023-05-15T09:34:37.804Z,98299.37
2023-05-15T09:37:12.743Z,98293.53
2023-05-15T09:39:41.997Z,98296.10
2023-05-15T09:42:16.009Z,98294.27
2023-05-15T10:46:06.581Z,98392.52
2023-05-15T10:48:35.818Z,98382.23
2023-05-15T10:54:26.170Z,98377.43
2023-05-15T11:27:45.441Z,98245.19
2023-05-15T11:30:17.553Z,98228.47
2023-05-15T11:32:47.195Z,98214.93
2023-05-15T11:35:32.128Z,98208.72
2023-05-15T11:38:19.532Z,98211.47
2023-05-15T11:40:55.799Z,98212.39
2023-05-15T11:43:27.819Z,98217.77
2023-05-15T11:46:08.118Z,98227.55
2023-05-15T14:39:15.391Z,98192.81
2023-05-15T14:48:31.651Z,98215.39
2023-05-15T14:51:02.279Z,98218.26
2023-05-15T14:53:30.783Z,98236.52
2023-05-15T14:56:32.815Z,98251.29
2023-05-15T14:58:59.633Z,98278.37
2023-05-15T15:01:27.517Z,98289.77
2023-05-15T15:03:55.091Z,98293.19
2023-05-15T15:06:22.790Z,98299.45
2023-05-15T15:08:50.191Z,98303.62
2023-05-15T15:11:18.945Z,98307.79
2023-05-15T15:13:53.482Z,98304.61
2023-05-15T15:16:25.724Z,98307.59
2023-05-15T15:18:52.911Z,98312.58
2023-05-15T15:21:20.149Z,98308.42
2023-05-15T15:23:48.406Z,98306.60
2023-05-15T15:26:19.101Z,98293.71
2023-05-15T15:28:59.982Z,98275.02
2023-05-15T15:31:31.197Z,98268.54
2023-05-15T15:34:00.287Z,98259.32
2023-05-15T15:36:57.532Z,98258.55
2023-05-15T15:39:41.684Z,98258.70
2023-05-15T15:42:09.405Z,98261.77
2023-05-15T15:44:36.245Z,98264.62
2023-05-15T15:47:03.700Z,98266.86
2023-05-15T15:49:33.517Z,98264.33
2023-05-15T15:52:04.748Z,98272.25
2023-05-15T15:54:32.528Z,98267.84
2023-05-15T15:57:02.748Z,98253.83
2023-05-15T15:59:29.577Z,98254.23
2023-05-15T16:01:57.573Z,98256.73
2023-05-15T16:10:10.871Z,98279.56
2023-05-15T16:12:40.090Z,98257.64
2023-05-15T16:15:43.966Z,98245.54
2023-05-15T16:18:12.542Z,98241.89
2023-05-15T16:20:39.522Z,98236.90
2023-05-15T16:23:08.567Z,98228.80
2023-05-15T16:25:40.830Z,98221.02
2023-05-15T16:28:10.342Z,98223.16
2023-05-15T16:30:48.315Z,98232.88
2023-05-15T16:33:19.783Z,98229.69
2023-05-15T16:35:46.737Z,98230.90
2023-05-15T16:38:13.666Z,98233.22
2023-05-15T16:40:42.515Z,98244.79
2023-05-15T16:43:09.233Z,98248.34
2023-05-15T16:45:35.759Z,98253.13
2023-05-15T16:48:02.808Z,98251.48
2023-05-15T16:50:34.384Z,98255.23
2023-05-15T16:53:00.902Z,98262.44
2023-05-15T16:55:27.567Z,98271.42
2023-05-15T16:58:08.806Z,98276.02
2023-05-15T17:00:35.980Z,98277.36
2023-05-15T17:42:27.153Z,98279.27
2023-05-15T17:44:55.814Z,98278.80
2023-05-15T17:47:24.094Z,98279.09
2023-05-15T17:49:50.939Z,98273.85
2023-05-15T17:52:17.584Z,98275.71
2023-05-15T17:54:46.642Z,98271.27
2023-05-15T17:57:13.218Z,98269.03
2023-05-15T17:59:39.903Z,98272.73
2023-05-15T18:02:06.813Z,98274.04
2023-05-15T18:04:33.880Z,98275.76
2023-05-15T18:07:00.649Z,98277.62
2023-05-15T18:09:30.681Z,98276.95
2023-05-15T18:12:00.364Z,98279.30
2023-05-15T18:14:27.232Z,98281.04
2023-05-15T18:17:11.787Z,98278.58
2023-05-15T18:19:44.029Z,98290.31
2023-05-15T18:22:13.395Z,98294.80
2023-05-15T18:24:41.163Z,98301.82
2023-05-15T18:27:10.760Z,98305.20
2023-05-15T18:29:37.879Z,98305.66
2023-05-15T18:32:04.955Z,98312.08
2023-05-15T18:34:35.849Z,98318.09
2023-05-15T18:37:08.534Z,98322.86
2023-05-15T18:39:36.423Z,98319.77
2023-05-15T18:42:06.419Z,98320.92
2023-05-15T18:44:35.144Z,98327.21
2023-05-15T18:47:12.766Z,98332.79
2023-05-15T18:49:40.938Z,98340.44
2023-05-15T18:55:58.345Z,98347.68
2023-05-15T18:58:25.948Z,98346.23
2023-05-15T19:01:20.995Z,98344.79
2023-05-15T19:04:08.732Z,98352.27
2023-05-15T19:06:36.774Z,98357.55
2023-05-15T19:09:06.094Z,98360.54
2023-05-15T19:40:44.820Z,98400.75
2023-05-15T19:44:28.341Z,98400.55
2023-05-15T19:55:42.761Z,98410.95
2023-05-15T21:02:15.378Z,98440.79
2023-05-15T21:04:43.354Z,98438.85
2023-05-15T21:07:10.154Z,98442.02
2023-05-15T21:09:36.789Z,98444.78
2023-05-15T21:12:04.897Z,98445.48
2023-05-15T21:14:31.933Z,98446.63
2023-05-15T21:16:58.893Z,98452.55
2023-05-15T21:19:25.972Z,98452.49
2023-05-15T21:21:54.659Z,98455.24
2023-05-15T21:24:21.340Z,98456.44
2023-05-15T21:26:48.192Z,98461.99
2023-05-15T21:29:15.147Z,98456.12
2023-05-15T21:31:41.789Z,98458.82
2023-05-15T21:34:08.991Z,98458.27
2023-05-15T21:36:35.859Z,98455.48
2023-05-15T21:39:02.653Z,98454.23
2023-05-15T21:41:29.449Z,98455.80
2023-05-15T21:43:56.132Z,98456.77
2023-05-15T21:46:27.877Z,98452.23
2023-05-15T21:48:56.134Z,98444.52
2023-05-15T21:51:22.921Z,98444.89
2023-05-15T21:53:49.538Z,98444.41
2023-05-15T21:56:16.170Z,98450.66
2023-05-15T21:58:47.020Z,98452.13
2023-05-15T22:01:15.646Z,98453.16
2023-05-15T22:03:42.574Z,98455.44
2023-05-15T22:06:11.813Z,98450.23
2023-05-15T22:08:38.554Z,98451.95
2023-05-15T22:11:06.002Z,98450.71
2023-05-15T22:13:32.537Z,98454.44
2023-05-15T22:15:59.210Z,98455.69
2023-05-15T22:18:27.534Z,98458.60
2023-05-15T22:20:56.872Z,98458.96
2023-05-15T22:23:27.912Z,98463.65
2023-05-15T22:25:54.824Z,98464.73
2023-05-15T22:28:27.997Z,98459.14
2023-05-15T22:31:00.294Z,98455.61
2023-05-15T22:33:29.087Z,98457.17
2023-05-15T22:35:55.713Z,98454.70
2023-05-15T22:38:22.293Z,98438.20
2023-05-15T22:40:53.911Z,98435.15
2023-05-15T22:43:21.692Z,98427.98
2023-05-15T22:45:48.519Z,98439.67
2023-05-15T22:48:20.205Z,98443.29
2023-05-15T22:50:46.955Z,98445.27
2023-05-15T22:53:16.157Z,98443.66
